createdAt,value
2022-08-16T00:01:24.396Z,100466.03
2022-08-16T00:03:53.760Z,100474.22
2022-08-16T00:06:22.496Z,100468.97
2022-08-16T00:08:50.151Z,100466.53
2022-08-16T00:11:21.590Z,100469.34
2022-08-16T00:13:53.587Z,100462.66
2022-08-16T00:17:00.528Z,100468.22
2022-08-16T00:19:22.607Z,100466.03
2022-08-16T00:21:55.206Z,100474.16
2022-08-16T00:24:32.706Z,100474.28
2022-08-16T00:27:03.876Z,100475.25
2022-08-16T00:29:32.812Z,100474.28
2022-08-16T00:32:05.950Z,100474.50
2022-08-16T00:34:43.687Z,100474.41
2022-08-16T00:37:17.116Z,100472.44
2022-08-16T00:39:56.938Z,100478.53
2022-08-16T00:42:31.709Z,100473.94
2022-08-16T00:45:25.157Z,100469.31
2022-08-16T00:47:54.711Z,100474.53
2022-08-16T00:50:36.561Z,100465.53
2022-08-16T00:53:08.148Z,100468.84
2022-08-16T00:55:41.940Z,100470.53
2022-08-16T00:58:12.769Z,100472.38
2022-08-16T01:00:54.368Z,100477.72
2022-08-16T01:03:30.201Z,100484.28
2022-08-16T01:05:58.220Z,100489.41
2022-08-16T01:08:36.547Z,100477.00
2022-08-16T01:11:06.560Z,100479.53
2022-08-16T01:13:37.587Z,100487.56
2022-08-16T01:16:35.474Z,100492.94
2022-08-16T01:19:23.505Z,100483.31
2022-08-16T01:22:58.861Z,100485.72
2022-08-16T01:24:57.124Z,100487.16
2022-08-16T01:27:35.870Z,100474.38
2022-08-16T01:30:19.923Z,100476.06
2022-08-16T01:33:01.872Z,100480.50
2022-08-16T01:36:12.009Z,100480.09
2022-08-16T01:38:47.020Z,100484.19
2022-08-16T01:41:26.360Z,100486.44
2022-08-16T01:44:01.433Z,100481.69
2022-08-16T01:46:44.740Z,100482.88
2022-08-16T01:49:43.035Z,100489.53
2022-08-16T01:52:28.071Z,100489.03
2022-08-16T01:55:35.635Z,100486.06
2022-08-16T01:58:05.163Z,100480.06
2022-08-16T02:00:34.176Z,100477.75
2022-08-16T02:03:02.568Z,100482.44
2022-08-16T02:05:30.575Z,100476.47
2022-08-16T02:08:00.461Z,100475.00
2022-08-16T02:10:28.914Z,100486.66
2022-08-16T02:13:00.681Z,100480.56
2022-08-16T02:15:35.618Z,100478.75
2022-08-16T02:18:12.823Z,100477.91
2022-08-16T02:20:46.483Z,100477.78
2022-08-16T02:23:17.308Z,100471.47
2022-08-16T02:25:52.154Z,100476.69
2022-08-16T02:28:26.238Z,100470.50
2022-08-16T02:30:58.316Z,100472.31
2022-08-16T02:33:44.526Z,100474.03
2022-08-16T02:36:48.087Z,100473.31
2022-08-16T02:39:11.160Z,100475.22
2022-08-16T02:41:42.159Z,100475.22
2022-08-16T02:44:13.634Z,100474.59
2022-08-16T02:46:50.650Z,100464.13
2022-08-16T02:49:22.095Z,100474.94
2022-08-16T02:51:59.330Z,100475.66
2022-08-16T02:54:29.062Z,100477.50
2022-08-16T02:56:56.509Z,100473.94
2022-08-16T02:59:24.426Z,100474.06
2022-08-16T03:01:51.789Z,100471.59
2022-08-16T03:04:39.316Z,100467.47
2022-08-16T03:07:14.885Z,100472.28
2022-08-16T03:09:45.424Z,100469.81
2022-08-16T03:12:16.601Z,100466.47
2022-08-16T03:14:47.508Z,100457.00
2022-08-16T03:17:17.056Z,100458.91
2022-08-16T03:19:48.608Z,100468.00
2022-08-16T03:22:28.677Z,100469.09
2022-08-16T03:25:04.896Z,100468.34
2022-08-16T03:27:41.027Z,100468.41
2022-08-16T03:30:24.644Z,100468.53
2022-08-16T03:32:56.964Z,100471.41
2022-08-16T03:35:32.759Z,100470.69
2022-08-16T03:38:34.666Z,100464.81
2022-08-16T03:40:56.650Z,100470.16
2022-08-16T03:43:51.932Z,100466.84
2022-08-16T03:46:44.558Z,100468.00
2022-08-16T03:49:05.393Z,100465.56
2022-08-16T03:51:34.716Z,100466.72
2022-08-16T03:54:12.163Z,100469.59
2022-08-16T03:56:57.113Z,100477.72
2022-08-16T03:59:29.378Z,100480.50
2022-08-16T04:02:01.299Z,100477.84
2022-08-16T04:04:33.550Z,100478.81
2022-08-16T04:07:07.409Z,100491.28
2022-08-16T04:09:38.645Z,100499.50
2022-08-16T04:12:52.343Z,100494.06
2022-08-16T04:15:02.457Z,100487.97
2022-08-16T04:17:32.598Z,100499.59
2022-08-16T04:20:24.060Z,100498.75
2022-08-16T04:22:56.053Z,100504.28
2022-08-16T04:25:24.805Z,100502.50
2022-08-16T04:27:56.133Z,100508.88
2022-08-16T04:30:30.239Z,100515.06
2022-08-16T04:33:02.654Z,100517.00
2022-08-16T04:35:35.868Z,100523.16
2022-08-16T04:38:10.676Z,100527.47
2022-08-16T04:40:50.230Z,100521.16
2022-08-16T04:43:18.752Z,100515.72
2022-08-16T04:45:47.417Z,100521.91
2022-08-16T04:48:32.609Z,100528.94
2022-08-16T04:51:07.845Z,100532.16
2022-08-16T04:53:43.942Z,100543.16
2022-08-16T04:56:11.883Z,100537.00
2022-08-16T04:58:45.821Z,100535.91
2022-08-16T05:01:15.522Z,100546.16
2022-08-16T05:04:00.275Z,100540.50
2022-08-16T05:06:42.317Z,100549.91
2022-08-16T05:09:38.415Z,100547.69
2022-08-16T05:12:06.850Z,100545.56
2022-08-16T05:14:45.759Z,100550.66
2022-08-16T05:17:18.029Z,100548.31
2022-08-16T05:19:46.790Z,100547.91
2022-08-16T05:22:28.404Z,100546.50
2022-08-16T05:24:57.015Z,100540.69
2022-08-16T05:27:24.513Z,100541.75
2022-08-16T05:30:00.082Z,100535.16
2022-08-16T05:32:36.488Z,100542.91
2022-08-16T05:35:16.023Z,100541.03
2022-08-16T05:37:58.666Z,100533.22
2022-08-16T05:40:26.683Z,100531.81
2022-08-16T05:42:55.509Z,100540.41
2022-08-16T05:45:24.199Z,100542.09
2022-08-16T05:47:59.589Z,100533.81
2022-08-16T05:50:34.955Z,100544.28
2022-08-16T05:53:03.748Z,100549.25
2022-08-16T05:55:35.233Z,100549.41
2022-08-16T05:58:08.277Z,100555.00
2022-08-16T06:00:37.064Z,100565.88
2022-08-16T06:03:04.210Z,100560.69
2022-08-16T06:05:51.545Z,100568.56
2022-08-16T06:08:31.545Z,100567.88
2022-08-16T06:11:09.990Z,100570.31
2022-08-16T06:13:41.967Z,100575.09
2022-08-16T06:16:18.316Z,100576.69
2022-08-16T06:18:47.785Z,100574.72
2022-08-16T06:21:22.548Z,100575.59
2022-08-16T06:23:54.283Z,100575.94
2022-08-16T06:26:24.282Z,100581.44
2022-08-16T06:29:05.317Z,100591.19
2022-08-16T06:31:49.266Z,100586.44
2022-08-16T06:34:55.580Z,100586.91
2022-08-16T06:37:13.368Z,100589.13
2022-08-16T06:39:49.845Z,100581.41
2022-08-16T06:42:30.272Z,100579.97
2022-08-16T06:45:29.879Z,100582.66
2022-08-16T06:48:06.367Z,100572.16
2022-08-16T06:50:35.357Z,100580.56
2022-08-16T06:53:08.845Z,100581.56
2022-08-16T06:55:47.100Z,100579.69
2022-08-16T06:58:31.416Z,100581.25
2022-08-16T07:01:09.865Z,100581.94
2022-08-16T07:03:54.482Z,100584.84
2022-08-16T07:06:26.497Z,100590.16
2022-08-16T07:09:00.986Z,100582.19
2022-08-16T07:11:47.341Z,100584.09
2022-08-16T07:14:25.703Z,100592.84
2022-08-16T07:16:58.329Z,100601.09
2022-08-16T07:20:01.684Z,100592.97
2022-08-16T07:22:38.047Z,100600.81
2022-08-16T07:25:15.981Z,100603.72
2022-08-16T07:27:44.287Z,100599.50
2022-08-16T07:30:39.925Z,100617.53
2022-08-16T07:33:07.401Z,100609.41
2022-08-16T07:35:44.396Z,100605.50
2022-08-16T07:38:19.719Z,100608.34
2022-08-16T07:41:00.156Z,100613.22
2022-08-16T07:43:29.745Z,100618.03
2022-08-16T07:46:01.420Z,100619.47
2022-08-16T07:48:30.913Z,100626.00
2022-08-16T07:51:00.856Z,100633.38
2022-08-16T07:53:34.765Z,100637.94
2022-08-16T07:56:11.564Z,100629.16
2022-08-16T07:58:40.488Z,100626.69
2022-08-16T08:01:15.550Z,100626.81
2022-08-16T08:03:58.296Z,100627.69
2022-08-16T08:06:33.139Z,100631.50
2022-08-16T08:09:07.024Z,100626.97
2022-08-16T08:11:34.435Z,100632.38
2022-08-16T08:14:06.634Z,100632.78
2022-08-16T08:16:39.752Z,100631.91
2022-08-16T08:19:17.823Z,100636.19
2022-08-16T08:21:59.452Z,100645.84
2022-08-16T08:24:48.667Z,100637.00
2022-08-16T08:27:22.484Z,100640.97
2022-08-16T08:30:49.431Z,100641.38
2022-08-16T08:32:51.125Z,100646.44
2022-08-16T08:35:27.061Z,100646.81
2022-08-16T08:37:56.520Z,100654.47
2022-08-16T08:40:29.714Z,100649.34
2022-08-16T08:43:12.216Z,100650.72
2022-08-16T08:45:52.817Z,100648.72
2022-08-16T08:48:33.681Z,100662.78
2022-08-16T08:51:09.211Z,100664.19
2022-08-16T08:53:43.354Z,100667.28
2022-08-16T08:56:22.984Z,100661.84
2022-08-16T08:58:58.291Z,100660.22
2022-08-16T09:01:43.007Z,100656.16
2022-08-16T09:04:24.319Z,100665.94
2022-08-16T09:06:53.584Z,100670.56
2022-08-16T09:09:23.215Z,100668.25
2022-08-16T09:12:04.123Z,100665.94
2022-08-16T09:14:49.417Z,100664.63
2022-08-16T09:17:47.198Z,100663.41
2022-08-16T09:20:14.362Z,100660.44
2022-08-16T09:22:44.180Z,100663.22
2022-08-16T09:25:25.678Z,100676.34
2022-08-16T09:27:58.096Z,100665.44
2022-08-16T09:30:36.428Z,100662.47
2022-08-16T09:33:18.341Z,100669.31
2022-08-16T09:35:53.216Z,100668.69
2022-08-16T09:38:32.026Z,100664.66
2022-08-16T09:41:02.771Z,100676.19
2022-08-16T09:43:59.569Z,100675.44
2022-08-16T09:46:44.560Z,100679.84
2022-08-16T09:49:05.827Z,100678.59
2022-08-16T09:51:37.478Z,100681.53
2022-08-16T09:54:09.625Z,100673.50
2022-08-16T09:56:39.643Z,100673.38
2022-08-16T09:59:25.230Z,100676.44
2022-08-16T10:01:54.472Z,100677.84
2022-08-16T10:04:29.812Z,100673.31
2022-08-16T10:07:15.142Z,100669.47
2022-08-16T10:09:55.873Z,100666.59
2022-08-16T10:12:55.756Z,100656.78
2022-08-16T10:15:25.313Z,100665.59
2022-08-16T10:18:00.989Z,100664.09
2022-08-16T10:20:35.232Z,100662.06
2022-08-16T10:23:17.064Z,100663.94
2022-08-16T10:27:19.576Z,100659.34
2022-08-16T10:28:39.098Z,100669.84
2022-08-16T10:31:14.457Z,100666.44
2022-08-16T10:33:45.067Z,100674.44
2022-08-16T10:36:39.263Z,100670.00
2022-08-16T10:39:01.479Z,100668.47
2022-08-16T10:41:29.119Z,100665.56
2022-08-16T10:43:56.870Z,100662.19
2022-08-16T10:46:40.097Z,100674.22
2022-08-16T10:49:12.307Z,100674.03
2022-08-16T10:52:01.809Z,100677.78
2022-08-16T10:54:29.390Z,100673.34
2022-08-16T10:57:01.017Z,100680.94
2022-08-16T10:59:46.975Z,100683.81
2022-08-16T11:02:57.793Z,100675.44
2022-08-16T11:05:16.596Z,100677.09
2022-08-16T11:07:52.658Z,100683.00
2022-08-16T11:19:12.543Z,100673.28
2022-08-16T11:24:41.945Z,100678.88
2022-08-16T11:27:20.154Z,100677.22
2022-08-16T11:29:52.176Z,100693.78
2022-08-16T11:32:32.555Z,100692.19
2022-08-16T11:35:10.808Z,100696.41
2022-08-16T11:38:06.200Z,100689.59
2022-08-16T11:40:52.281Z,100695.22
2022-08-16T11:43:24.979Z,100689.56
2022-08-16T11:45:57.121Z,100696.13
2022-08-16T11:48:27.858Z,100696.84
2022-08-16T11:50:56.315Z,100695.00
2022-08-16T11:53:24.748Z,100692.94
2022-08-16T11:55:55.496Z,100700.25
2022-08-16T11:58:26.031Z,100700.59
2022-08-16T12:00:57.456Z,100704.19
2022-08-16T12:03:35.371Z,100702.09
2022-08-16T12:06:30.651Z,100704.75
2022-08-16T12:09:01.040Z,100715.56
2022-08-16T12:11:31.932Z,100715.97
2022-08-16T12:14:04.263Z,100716.69
2022-08-16T12:16:36.974Z,100719.13
2022-08-16T12:19:10.675Z,100714.19
2022-08-16T12:21:58.876Z,100717.09
2022-08-16T12:24:28.449Z,100720.16
2022-08-16T12:26:57.549Z,100720.53
2022-08-16T12:29:29.392Z,100718.97
2022-08-16T12:32:01.706Z,100719.13
2022-08-16T12:34:50.412Z,100724.56
2022-08-16T12:37:21.782Z,100718.22
2022-08-16T12:39:56.720Z,100721.84
2022-08-16T12:42:35.456Z,100707.13
2022-08-16T12:45:12.467Z,100707.13
2022-08-16T12:48:29.702Z,100711.34
2022-08-16T12:50:49.242Z,100711.81
2022-08-16T12:53:20.569Z,100706.09
2022-08-16T12:55:49.939Z,100708.06
2022-08-16T12:58:48.317Z,100720.34
2022-08-16T13:01:09.356Z,100713.03
2022-08-16T13:03:40.488Z,100713.13
2022-08-16T13:06:08.759Z,100717.59
2022-08-16T13:08:36.494Z,100720.53
2022-08-16T13:11:07.888Z,100713.59
2022-08-16T13:13:36.139Z,100713.31
2022-08-16T13:16:15.378Z,100720.53
2022-08-16T13:18:52.573Z,100715.97
2022-08-16T13:21:23.475Z,100722.25
2022-08-16T13:23:55.189Z,100714.84
2022-08-16T13:26:26.390Z,100719.06
2022-08-16T13:28:54.403Z,100715.28
2022-08-16T13:31:21.838Z,100714.72
2022-08-16T13:33:51.840Z,100698.50
2022-08-16T13:36:38.844Z,100703.38
2022-08-16T13:39:09.875Z,100695.81
2022-08-16T13:41:37.788Z,100696.56
2022-08-16T13:44:09.401Z,100698.69
2022-08-16T13:46:37.351Z,100692.59
2022-08-16T13:49:05.956Z,100695.72
2022-08-16T13:51:33.179Z,100704.09
2022-08-16T13:54:04.537Z,100700.38
2022-08-16T13:56:39.484Z,100690.34
2022-08-16T13:59:19.919Z,100700.00
2022-08-16T14:02:02.834Z,100699.53
2022-08-16T14:04:34.188Z,100698.91
2022-08-16T14:07:05.529Z,100693.81
2022-08-16T14:09:36.809Z,100701.09
2022-08-16T14:12:21.972Z,100702.91
2022-08-16T14:14:54.515Z,100711.25
2022-08-16T14:17:25.955Z,100697.50
2022-08-16T14:19:54.028Z,100704.84
2022-08-16T14:22:39.911Z,100702.22
2022-08-16T14:25:19.017Z,100700.59
2022-08-16T14:27:46.875Z,100700.13
2022-08-16T14:30:19.184Z,100706.03
2022-08-16T14:32:50.858Z,100707.56
2022-08-16T14:35:36.822Z,100707.97
2022-08-16T14:38:18.597Z,100705.44
2022-08-16T14:40:52.750Z,100698.56
2022-08-16T14:43:29.796Z,100701.47
2022-08-16T14:45:58.127Z,100699.59
2022-08-16T14:48:26.319Z,100703.06
2022-08-16T14:50:55.569Z,100708.41
2022-08-16T14:53:25.574Z,100709.56
2022-08-16T14:55:54.622Z,100704.31
2022-08-16T14:58:35.080Z,100712.69
2022-08-16T15:01:10.077Z,100711.13
2022-08-16T15:03:42.288Z,100708.28
2022-08-16T15:06:13.213Z,100717.38
2022-08-16T15:08:42.236Z,100704.59
2022-08-16T15:11:09.415Z,100713.63
2022-08-16T15:13:36.581Z,100706.47
2022-08-16T15:16:04.905Z,100702.25
2022-08-16T15:18:33.481Z,100707.66
2022-08-16T15:21:04.713Z,100699.72
2022-08-16T15:23:33.925Z,100700.19
2022-08-16T15:26:03.915Z,100698.03
2022-08-16T15:28:37.118Z,100695.97
2022-08-16T15:31:10.522Z,100700.38
2022-08-16T15:33:49.995Z,100695.78
2022-08-16T15:36:21.041Z,100702.09
2022-08-16T15:39:02.852Z,100700.13
2022-08-16T15:41:43.129Z,100708.81
2022-08-16T15:44:17.883Z,100711.44
2022-08-16T15:46:57.069Z,100712.03
2022-08-16T15:49:37.195Z,100712.97
2022-08-16T15:52:11.167Z,100710.50
2022-08-16T15:54:51.492Z,100710.41
2022-08-16T15:57:27.168Z,100718.19
2022-08-16T15:59:56.439Z,100715.75
2022-08-16T16:02:39.486Z,100713.75
2022-08-16T16:05:10.166Z,100719.41
2022-08-16T16:07:40.810Z,100719.50
2022-08-16T16:10:29.513Z,100719.91
2022-08-16T16:13:03.727Z,100717.28
2022-08-16T16:15:40.326Z,100718.53
2022-08-16T16:18:09.947Z,100722.75
2022-08-16T16:20:46.562Z,100724.88
2022-08-16T16:23:19.428Z,100715.44
2022-08-16T16:25:52.324Z,100715.63
2022-08-16T16:29:06.099Z,100722.00
2022-08-16T16:31:16.217Z,100724.75
2022-08-16T16:33:50.458Z,100719.22
2022-08-16T16:36:22.228Z,100717.50
2022-08-16T16:38:52.791Z,100727.31
2022-08-16T16:41:25.476Z,100725.38
2022-08-16T16:43:55.997Z,100721.06
2022-08-16T16:46:41.995Z,100721.22
2022-08-16T16:49:13.887Z,100719.06
2022-08-16T16:51:44.897Z,100722.13
2022-08-16T16:54:28.005Z,100721.91
2022-08-16T16:56:59.172Z,100718.38
2022-08-16T16:59:28.034Z,100720.06
2022-08-16T17:02:38.661Z,100717.72
2022-08-16T17:04:47.206Z,100716.31
2022-08-16T17:07:16.274Z,100710.91
2022-08-16T17:09:46.821Z,100710.81
2022-08-16T17:12:24.665Z,100711.31
2022-08-16T17:14:55.961Z,100714.41
2022-08-16T17:17:24.103Z,100708.44
2022-08-16T17:19:51.619Z,100702.81
2022-08-16T17:22:22.887Z,100707.97
2022-08-16T17:24:53.228Z,100709.94
2022-08-16T17:27:32.060Z,100714.91
2022-08-16T17:30:15.046Z,100713.06
2022-08-16T17:32:54.997Z,100718.69
2022-08-16T17:35:37.743Z,100713.28
2022-08-16T17:38:09.041Z,100725.44
2022-08-16T17:40:50.330Z,100720.00
2022-08-16T17:43:36.453Z,100722.53
2022-08-16T17:46:06.676Z,100718.50
2022-08-16T17:48:54.534Z,100725.25
2022-08-16T17:51:27.545Z,100733.69
2022-08-16T17:53:55.098Z,100726.75
2022-08-16T17:56:22.356Z,100739.59
2022-08-16T17:58:49.686Z,100728.91
2022-08-16T18:01:27.321Z,100734.47
2022-08-16T18:04:09.212Z,100734.72
2022-08-16T18:06:39.491Z,100731.47
2022-08-16T18:09:08.719Z,100732.94
2022-08-16T18:11:42.927Z,100737.63
2022-08-16T18:14:13.129Z,100733.81
2022-08-16T18:16:41.273Z,100741.63
2022-08-16T18:19:10.524Z,100744.75
2022-08-16T18:21:56.655Z,100745.00
2022-08-16T18:24:24.760Z,100744.41
2022-08-16T18:26:52.974Z,100752.78
2022-08-16T18:29:21.204Z,100748.56
2022-08-16T18:31:50.783Z,100748.63
2022-08-16T18:34:20.602Z,100744.13
2022-08-16T18:36:48.436Z,100742.91
2022-08-16T18:39:16.220Z,100745.38
2022-08-16T18:41:46.976Z,100742.44
2022-08-16T18:44:26.510Z,100748.75
2022-08-16T18:46:55.869Z,100747.09
2022-08-16T18:49:23.291Z,100754.25
2022-08-16T18:51:50.979Z,100762.38
2022-08-16T18:54:18.660Z,100756.59
2022-08-16T18:56:56.184Z,100763.56
2022-08-16T18:59:30.814Z,100764.88
2022-08-16T19:02:04.037Z,100768.13
2022-08-16T19:04:55.706Z,100765.88
2022-08-16T19:07:31.013Z,100764.78
2022-08-16T19:10:03.956Z,100765.22
2022-08-16T19:12:38.417Z,100766.50
2022-08-16T19:15:20.117Z,100764.41
2022-08-16T19:17:47.799Z,100777.56
2022-08-16T19:20:19.383Z,100775.47
2022-08-16T19:23:05.935Z,100776.47
2022-08-16T19:25:46.274Z,100780.31
2022-08-16T19:28:58.512Z,100779.34
2022-08-16T19:31:22.101Z,100786.41
2022-08-16T19:33:55.327Z,100792.38
2022-08-16T19:36:36.869Z,100798.06
2022-08-16T19:39:12.232Z,100796.75
2022-08-16T19:41:53.888Z,100790.09
2022-08-16T19:44:22.833Z,100804.53
2022-08-16T19:46:50.682Z,100800.53
2022-08-16T19:49:17.849Z,100815.25
2022-08-16T19:51:47.037Z,100822.78
2022-08-16T19:54:15.157Z,100831.84
2022-08-16T19:56:42.296Z,100837.53
2022-08-16T19:59:19.283Z,100832.53
2022-08-16T20:01:49.206Z,100830.97
2022-08-16T20:04:16.268Z,100841.00
2022-08-16T20:06:43.546Z,100847.53
2022-08-16T20:09:15.195Z,100840.00
2022-08-16T20:11:48.335Z,100842.53
2022-08-16T20:14:24.100Z,100842.06
2022-08-16T20:16:59.486Z,100841.63
2022-08-16T20:19:33.431Z,100845.72
2022-08-16T20:22:52.349Z,100850.53
2022-08-16T20:25:28.196Z,100840.97
2022-08-16T20:27:56.966Z,100842.19
2022-08-16T20:30:25.714Z,100858.75
2022-08-16T20:32:54.483Z,100851.94
2022-08-16T20:35:25.825Z,100863.94
2022-08-16T20:37:54.716Z,100849.78
2022-08-16T20:40:28.823Z,100854.72
2022-08-16T20:43:09.568Z,100853.84
2022-08-16T20:45:38.389Z,100846.44
2022-08-16T20:48:07.135Z,100850.75
2022-08-16T20:50:35.829Z,100857.66
2022-08-16T20:53:04.455Z,100856.44
2022-08-16T20:55:35.596Z,100861.38
2022-08-16T20:58:03.045Z,100866.03
2022-08-16T21:00:30.991Z,100868.84
2022-08-16T21:02:58.283Z,100869.84
2022-08-16T21:05:31.351Z,100870.94
2022-08-16T21:07:59.607Z,100857.91
2022-08-16T21:10:27.212Z,100844.81
2022-08-16T21:12:58.398Z,100847.00
2022-08-16T21:15:28.019Z,100849.94
2022-08-16T21:17:55.527Z,100857.03
2022-08-16T21:20:26.076Z,100858.88
2022-08-16T21:22:56.585Z,100859.00
2022-08-16T21:25:24.963Z,100858.75
2022-08-16T21:28:39.013Z,100858.75
2022-08-16T21:30:40.412Z,100861.44
2022-08-16T21:33:14.848Z,100860.69
2022-08-16T21:35:46.863Z,100862.69
2022-08-16T21:38:30.179Z,100860.00
2022-08-16T21:40:59.603Z,100861.94
2022-08-16T21:43:31.833Z,100859.50
2022-08-16T21:46:01.783Z,100861.59
2022-08-16T21:48:35.227Z,100865.25
2022-08-16T21:51:12.171Z,100865.41
2022-08-16T21:53:39.956Z,100866.63
2022-08-16T21:56:12.659Z,100872.13
2022-08-16T21:58:52.675Z,100871.25
2022-08-16T22:01:23.085Z,100869.69
2022-08-16T22:04:36.088Z,100872.50
2022-08-16T22:06:41.035Z,100875.44
2022-08-16T22:09:10.631Z,100871.28
2022-08-16T22:11:38.394Z,100866.03
2022-08-16T22:14:05.589Z,100868.13
2022-08-16T22:16:37.425Z,100874.63
2022-08-16T22:19:06.157Z,100876.81
2022-08-16T22:21:35.274Z,100882.69
2022-08-16T22:24:05.711Z,100873.16
2022-08-16T22:26:42.830Z,100873.66
2022-08-16T22:29:13.946Z,100885.72
2022-08-16T22:31:43.857Z,100880.47
2022-08-16T22:34:12.972Z,100879.41
2022-08-16T22:36:40.484Z,100875.94
2022-08-16T22:39:11.712Z,100876.09
2022-08-16T22:41:42.169Z,100880.72
2022-08-16T22:44:09.822Z,100866.78
2022-08-16T22:46:37.656Z,100869.84
2022-08-16T22:49:07.047Z,100872.88
2022-08-16T22:51:35.757Z,100874.13
2022-08-16T22:54:33.951Z,100873.25
2022-08-16T22:56:50.509Z,100869.84
2022-08-16T23:01:44.521Z,100870.31
2022-08-16T23:04:11.626Z,100874.97
2022-08-16T23:06:38.742Z,100875.22
2022-08-16T23:09:05.878Z,100875.31
2022-08-16T23:11:33.038Z,100876.41
2022-08-16T23:14:00.297Z,100868.59
2022-08-16T23:16:34.755Z,100859.56
2022-08-16T23:19:10.949Z,100862.50
2022-08-16T23:21:46.498Z,100861.78
2022-08-16T23:24:14.124Z,100850.53
2022-08-16T23:27:00.500Z,100853.34
2022-08-16T23:29:45.832Z,100855.53
2022-08-16T23:32:31.069Z,100851.25
2022-08-16T23:35:22.229Z,100861.25
2022-08-16T23:38:08.599Z,100858.09
2022-08-16T23:41:14.042Z,100860.16
2022-08-16T23:43:43.916Z,100856.59
2022-08-16T23:46:17.082Z,100864.53
2022-08-16T23:50:01.599Z,100858.44
2022-08-16T23:51:34.133Z,100858.53
2022-08-16T23:54:01.242Z,100849.50
2022-08-16T23:56:35.464Z,100847.56
2022-08-16T23:59:07.985Z,100846.72
